sensor_id;sensor_type;location;lat;lon;timestamp;P1;durP1;ratioP1;P2;durP2;ratioP2
59074;SDS011;44860;53.020;6.738;2022-10-23T00:01:42;25.00;;;13.85;;
59074;SDS011;44860;53.020;6.738;2022-10-23T00:04:10;23.85;;;13.60;;
59074;SDS011;44860;53.020;6.738;2022-10-23T00:06:54;24.55;;;13.90;;
59074;SDS011;44860;53.020;6.738;2022-10-23T00:09:21;23.55;;;14.13;;
59074;SDS011;44860;53.020;6.738;2022-10-23T00:11:48;19.08;;;12.73;;
59074;SDS011;44860;53.020;6.738;2022-10-23T00:14:16;21.55;;;13.10;;
59074;SDS011;44860;53.020;6.738;2022-10-23T00:16:43;21.77;;;13.88;;
59074;SDS011;44860;53.020;6.738;2022-10-23T00:19:09;20.83;;;13.48;;
59074;SDS011;44860;53.020;6.738;2022-10-23T00:21:35;20.63;;;13.80;;
59074;SDS011;44860;53.020;6.738;2022-10-23T00:24:01;24.48;;;14.68;;
59074;SDS011;44860;53.020;6.738;2022-10-23T00:26:27;22.23;;;15.60;;
59074;SDS011;44860;53.020;6.738;2022-10-23T00:28:53;24.48;;;15.93;;
59074;SDS011;44860;53.020;6.738;2022-10-23T00:31:19;26.63;;;17.08;;
59074;SDS011;44860;53.020;6.738;2022-10-23T00:33:46;32.47;;;17.50;;
59074;SDS011;44860;53.020;6.738;2022-10-23T00:36:13;35.45;;;18.20;;
59074;SDS011;44860;53.020;6.738;2022-10-23T00:38:40;28.48;;;19.52;;
59074;SDS011;44860;53.020;6.738;2022-10-23T00:41:06;28.27;;;18.98;;
59074;SDS011;44860;53.020;6.738;2022-10-23T00:43:33;32.25;;;19.60;;
59074;SDS011;44860;53.020;6.738;2022-10-23T00:46:01;30.75;;;20.15;;
59074;SDS011;44860;53.020;6.738;2022-10-23T00:48:26;28.67;;;18.13;;
59074;SDS011;44860;53.020;6.738;2022-10-23T00:50:53;30.80;;;18.17;;
59074;SDS011;44860;53.020;6.738;2022-10-23T00:53:19;27.90;;;18.58;;
59074;SDS011;44860;53.020;6.738;2022-10-23T00:55:47;26.08;;;17.88;;
59074;SDS011;44860;53.020;6.738;2022-10-23T00:58:16;24.40;;;16.75;;
59074;SDS011;44860;53.020;6.738;2022-10-23T01:00:51;25.60;;;18.13;;
59074;SDS011;44860;53.020;6.738;2022-10-23T01:03:19;26.95;;;18.08;;
59074;SDS011;44860;53.020;6.738;2022-10-23T01:05:48;24.25;;;17.20;;
59074;SDS011;44860;53.020;6.738;2022-10-23T01:08:21;29.27;;;17.83;;
59074;SDS011;44860;53.020;6.738;2022-10-23T01:13:43;24.60;;;16.17;;
59074;SDS011;44860;53.020;6.738;2022-10-23T01:16:15;30.42;;;18.50;;
59074;SDS011;44860;53.020;6.738;2022-10-23T01:18:56;28.48;;;17.50;;
59074;SDS011;44860;53.020;6.738;2022-10-23T01:24:20;26.73;;;17.95;;
59074;SDS011;44860;53.020;6.738;2022-10-23T01:26:59;30.65;;;18.70;;
59074;SDS011;44860;53.020;6.738;2022-10-23T01:29:40;28.02;;;19.48;;
59074;SDS011;44860;53.020;6.738;2022-10-23T01:37:19;26.00;;;17.25;;
59074;SDS011;44860;53.020;6.738;2022-10-23T01:39:51;20.67;;;16.08;;
59074;SDS011;44860;53.020;6.738;2022-10-23T01:42:23;25.58;;;15.95;;
59074;SDS011;44860;53.020;6.738;2022-10-23T01:45:02;20.10;;;14.60;;
59074;SDS011;44860;53.020;6.738;2022-10-23T01:47:33;22.33;;;15.05;;
59074;SDS011;44860;53.020;6.738;2022-10-23T01:50:00;18.85;;;13.20;;
59074;SDS011;44860;53.020;6.738;2022-10-23T01:52:28;22.70;;;14.48;;
59074;SDS011;44860;53.020;6.738;2022-10-23T01:54:55;21.05;;;13.90;;
59074;SDS011;44860;53.020;6.738;2022-10-23T01:57:25;18.60;;;12.70;;
59074;SDS011;44860;53.020;6.738;2022-10-23T01:59:57;19.98;;;12.85;;
59074;SDS011;44860;53.020;6.738;2022-10-23T02:02:27;16.85;;;13.18;;
59074;SDS011;44860;53.020;6.738;2022-10-23T02:05:02;17.33;;;13.88;;
59074;SDS011;44860;53.020;6.738;2022-10-23T02:07:33;18.02;;;13.05;;
59074;SDS011;44860;53.020;6.738;2022-10-23T02:09:59;16.15;;;12.02;;
59074;SDS011;44860;53.020;6.738;2022-10-23T02:15:35;17.45;;;13.80;;
59074;SDS011;44860;53.020;6.738;2022-10-23T02:21:12;17.52;;;12.60;;
59074;SDS011;44860;53.020;6.738;2022-10-23T02:23:52;19.60;;;12.77;;
59074;SDS011;44860;53.020;6.738;2022-10-23T02:26:27;13.25;;;11.80;;
59074;SDS011;44860;53.020;6.738;2022-10-23T02:29:08;17.50;;;13.00;;
59074;SDS011;44860;53.020;6.738;2022-10-23T02:31:38;17.35;;;14.10;;
59074;SDS011;44860;53.020;6.738;2022-10-23T02:34:04;18.17;;;13.85;;
59074;SDS011;44860;53.020;6.738;2022-10-23T02:36:30;25.33;;;15.60;;
59074;SDS011;44860;53.020;6.738;2022-10-23T02:38:56;21.00;;;13.85;;
59074;SDS011;44860;53.020;6.738;2022-10-23T02:41:42;18.90;;;13.77;;
59074;SDS011;44860;53.020;6.738;2022-10-23T02:52:19;21.58;;;15.95;;
59074;SDS011;44860;53.020;6.738;2022-10-23T02:58:06;20.88;;;14.50;;
59074;SDS011;44860;53.020;6.738;2022-10-23T03:00:39;21.87;;;14.07;;
59074;SDS011;44860;53.020;6.738;2022-10-23T03:03:12;19.35;;;14.73;;
59074;SDS011;44860;53.020;6.738;2022-10-23T03:05:41;18.33;;;15.10;;
59074;SDS011;44860;53.020;6.738;2022-10-23T03:08:09;21.77;;;16.10;;
59074;SDS011;44860;53.020;6.738;2022-10-23T03:10:37;21.63;;;16.73;;
59074;SDS011;44860;53.020;6.738;2022-10-23T03:13:03;21.35;;;15.52;;
59074;SDS011;44860;53.020;6.738;2022-10-23T03:15:29;25.10;;;17.95;;
59074;SDS011;44860;53.020;6.738;2022-10-23T03:17:54;25.33;;;19.48;;
59074;SDS011;44860;53.020;6.738;2022-10-23T03:20:20;22.08;;;16.25;;
59074;SDS011;44860;53.020;6.738;2022-10-23T03:22:46;20.65;;;16.45;;
59074;SDS011;44860;53.020;6.738;2022-10-23T03:25:12;25.70;;;17.90;;
59074;SDS011;44860;53.020;6.738;2022-10-23T03:27:37;21.27;;;16.55;;
59074;SDS011;44860;53.020;6.738;2022-10-23T03:30:03;19.10;;;15.65;;
59074;SDS011;44860;53.020;6.738;2022-10-23T03:32:30;21.45;;;15.38;;
59074;SDS011;44860;53.020;6.738;2022-10-23T03:34:55;16.05;;;14.18;;
59074;SDS011;44860;53.020;6.738;2022-10-23T03:37:21;19.35;;;14.50;;
59074;SDS011;44860;53.020;6.738;2022-10-23T03:39:47;18.50;;;15.27;;
59074;SDS011;44860;53.020;6.738;2022-10-23T03:42:12;19.38;;;15.30;;
59074;SDS011;44860;53.020;6.738;2022-10-23T03:44:38;19.58;;;15.88;;
59074;SDS011;44860;53.020;6.738;2022-10-23T03:47:04;18.08;;;15.35;;
59074;SDS011;44860;53.020;6.738;2022-10-23T03:49:29;21.55;;;14.40;;
59074;SDS011;44860;53.020;6.738;2022-10-23T03:51:55;19.55;;;15.98;;
59074;SDS011;44860;53.020;6.738;2022-10-23T03:54:22;19.98;;;15.55;;
59074;SDS011;44860;53.020;6.738;2022-10-23T03:56:49;21.38;;;16.00;;
59074;SDS011;44860;53.020;6.738;2022-10-23T03:59:15;20.13;;;15.75;;
59074;SDS011;44860;53.020;6.738;2022-10-23T04:01:41;20.40;;;16.10;;
59074;SDS011;44860;53.020;6.738;2022-10-23T04:04:07;24.30;;;16.33;;
59074;SDS011;44860;53.020;6.738;2022-10-23T04:06:33;18.63;;;15.32;;
59074;SDS011;44860;53.020;6.738;2022-10-23T04:08:59;20.73;;;15.75;;
59074;SDS011;44860;53.020;6.738;2022-10-23T04:11:24;19.75;;;14.73;;
59074;SDS011;44860;53.020;6.738;2022-10-23T04:13:50;21.70;;;16.23;;
59074;SDS011;44860;53.020;6.738;2022-10-23T04:16:16;23.25;;;17.63;;
59074;SDS011;44860;53.020;6.738;2022-10-23T04:18:42;24.90;;;17.02;;
59074;SDS011;44860;53.020;6.738;2022-10-23T04:21:07;24.92;;;18.00;;
59074;SDS011;44860;53.020;6.738;2022-10-23T04:23:33;23.33;;;17.92;;
59074;SDS011;44860;53.020;6.738;2022-10-23T04:25:59;28.63;;;17.15;;
59074;SDS011;44860;53.020;6.738;2022-10-23T04:28:25;17.85;;;15.07;;
59074;SDS011;44860;53.020;6.738;2022-10-23T04:30:51;21.17;;;16.27;;
59074;SDS011;44860;53.020;6.738;2022-10-23T04:33:17;27.55;;;18.33;;
59074;SDS011;44860;53.020;6.738;2022-10-23T04:35:43;28.85;;;18.35;;
59074;SDS011;44860;53.020;6.738;2022-10-23T04:38:09;19.77;;;15.13;;
59074;SDS011;44860;53.020;6.738;2022-10-23T04:40:34;25.50;;;17.40;;
59074;SDS011;44860;53.020;6.738;2022-10-23T04:43:00;21.55;;;16.98;;
59074;SDS011;44860;53.020;6.738;2022-10-23T04:45:26;28.60;;;18.63;;
59074;SDS011;44860;53.020;6.738;2022-10-23T04:47:52;31.98;;;19.55;;
59074;SDS011;44860;53.020;6.738;2022-10-23T04:50:17;32.72;;;19.50;;
59074;SDS011;44860;53.020;6.738;2022-10-23T04:52:44;26.30;;;19.95;;
59074;SDS011;44860;53.020;6.738;2022-10-23T04:55:10;29.30;;;19.80;;
59074;SDS011;44860;53.020;6.738;2022-10-23T04:57:36;26.92;;;19.58;;
59074;SDS011;44860;53.020;6.738;2022-10-23T05:00:02;30.80;;;19.65;;
59074;SDS011;44860;53.020;6.738;2022-10-23T05:02:30;22.30;;;18.17;;
59074;SDS011;44860;53.020;6.738;2022-10-23T05:04:55;29.73;;;19.48;;
59074;SDS011;44860;53.020;6.738;2022-10-23T05:07:21;24.85;;;18.98;;
59074;SDS011;44860;53.020;6.738;2022-10-23T05:09:46;36.00;;;21.55;;
59074;SDS011;44860;53.020;6.738;2022-10-23T05:12:12;26.10;;;19.58;;
59074;SDS011;44860;53.020;6.738;2022-10-23T05:14:38;29.58;;;20.10;;
59074;SDS011;44860;53.020;6.738;2022-10-23T05:17:08;29.42;;;19.88;;
59074;SDS011;44860;53.020;6.738;2022-10-23T05:19:40;26.70;;;19.50;;
59074;SDS011;44860;53.020;6.738;2022-10-23T05:22:10;30.45;;;21.13;;
59074;SDS011;44860;53.020;6.738;2022-10-23T05:24:37;30.77;;;20.58;;
59074;SDS011;44860;53.020;6.738;2022-10-23T05:27:03;31.95;;;20.77;;
59074;SDS011;44860;53.020;6.738;2022-10-23T05:29:29;25.98;;;19.33;;
59074;SDS011;44860;53.020;6.738;2022-10-23T05:31:55;26.25;;;18.98;;
59074;SDS011;44860;53.020;6.738;2022-10-23T05:34:25;23.50;;;17.92;;
59074;SDS011;44860;53.020;6.738;2022-10-23T05:36:53;26.58;;;19.33;;
59074;SDS011;44860;53.020;6.738;2022-10-23T05:39:19;28.95;;;19.63;;
59074;SDS011;44860;53.020;6.738;2022-10-23T05:41:45;26.48;;;17.98;;
59074;SDS011;44860;53.020;6.738;2022-10-23T05:44:11;27.60;;;18.98;;
59074;SDS011;44860;53.020;6.738;2022-10-23T05:46:40;29.23;;;20.10;;
59074;SDS011;44860;53.020;6.738;2022-10-23T05:49:06;31.95;;;19.90;;
59074;SDS011;44860;53.020;6.738;2022-10-23T05:51:34;29.83;;;19.80;;
59074;SDS011;44860;53.020;6.738;2022-10-23T05:54:01;28.90;;;20.30;;
59074;SDS011;44860;53.020;6.738;2022-10-23T05:56:27;31.65;;;20.85;;
59074;SDS011;44860;53.020;6.738;2022-10-23T05:58:52;26.73;;;19.92;;
59074;SDS011;44860;53.020;6.738;2022-10-23T06:01:18;28.73;;;19.52;;
59074;SDS011;44860;53.020;6.738;2022-10-23T06:03:44;31.52;;;21.58;;
59074;SDS011;44860;53.020;6.738;2022-10-23T06:06:09;36.58;;;21.85;;
59074;SDS011;44860;53.020;6.738;2022-10-23T06:08:35;37.72;;;22.38;;
59074;SDS011;44860;53.020;6.738;2022-10-23T06:11:04;27.58;;;20.23;;
59074;SDS011;44860;53.020;6.738;2022-10-23T06:16:06;31.13;;;21.15;;
59074;SDS011;44860;53.020;6.738;2022-10-23T06:18:36;32.92;;;21.85;;
59074;SDS011;44860;53.020;6.738;2022-10-23T06:21:01;31.08;;;21.27;;
59074;SDS011;44860;53.020;6.738;2022-10-23T06:23:29;34.78;;;22.38;;
59074;SDS011;44860;53.020;6.738;2022-10-23T06:25:56;29.98;;;21.35;;
59074;SDS011;44860;53.020;6.738;2022-10-23T06:28:22;33.08;;;22.23;;
59074;SDS011;44860;53.020;6.738;2022-10-23T06:30:48;33.40;;;22.92;;
59074;SDS011;44860;53.020;6.738;2022-10-23T06:33:13;34.80;;;22.13;;
59074;SDS011;44860;53.020;6.738;2022-10-23T06:35:39;38.70;;;23.48;;
59074;SDS011;44860;53.020;6.738;2022-10-23T06:38:04;32.95;;;22.00;;
59074;SDS011;44860;53.020;6.738;2022-10-23T06:40:30;35.92;;;23.08;;
59074;SDS011;44860;53.020;6.738;2022-10-23T06:42:56;36.50;;;22.95;;
59074;SDS011;44860;53.020;6.738;2022-10-23T06:45:21;31.83;;;22.83;;
59074;SDS011;44860;53.020;6.738;2022-10-23T06:47:50;34.67;;;22.70;;
59074;SDS011;44860;53.020;6.738;2022-10-23T06:50:16;30.33;;;21.60;;
59074;SDS011;44860;53.020;6.738;2022-10-23T06:52:41;37.15;;;23.35;;
59074;SDS011;44860;53.020;6.738;2022-10-23T06:55:07;30.02;;;22.10;;
59074;SDS011;44860;53.020;6.738;2022-10-23T06:57:33;32.83;;;22.27;;
59074;SDS011;44860;53.020;6.738;2022-10-23T06:59:59;37.13;;;22.63;;
59074;SDS011;44860;53.020;6.738;2022-10-23T07:02:24;34.50;;;21.98;;
59074;SDS011;44860;53.020;6.738;2022-10-23T07:04:50;30.65;;;22.15;;
59074;SDS011;44860;53.020;6.738;2022-10-23T07:07:16;35.20;;;22.98;;
59074;SDS011;44860;53.020;6.738;2022-10-23T07:09:41;37.17;;;22.83;;
59074;SDS011;44860;53.020;6.738;2022-10-23T07:12:07;33.40;;;22.10;;
59074;SDS011;44860;53.020;6.738;2022-10-23T07:14:32;37.70;;;23.23;;
59074;SDS011;44860;53.020;6.738;2022-10-23T07:16:58;36.53;;;22.40;;
59074;SDS011;44860;53.020;6.738;2022-10-23T07:19:24;31.80;;;22.70;;
59074;SDS011;44860;53.020;6.738;2022-10-23T07:21:49;29.38;;;22.58;;
59074;SDS011;44860;53.020;6.738;2022-10-23T07:24:15;34.95;;;22.75;;
59074;SDS011;44860;53.020;6.738;2022-10-23T07:26:42;36.03;;;21.98;;
59074;SDS011;44860;53.020;6.738;2022-10-23T07:29:08;35.58;;;23.10;;
59074;SDS011;44860;53.020;6.738;2022-10-23T07:31:37;34.78;;;21.92;;
59074;SDS011;44860;53.020;6.738;2022-10-23T07:34:03;31.95;;;22.27;;
59074;SDS011;44860;53.020;6.738;2022-10-23T07:36:30;31.25;;;21.77;;
59074;SDS011;44860;53.020;6.738;2022-10-23T07:38:56;33.97;;;20.42;;
59074;SDS011;44860;53.020;6.738;2022-10-23T07:41:21;31.05;;;21.27;;
59074;SDS011;44860;53.020;6.738;2022-10-23T07:43:47;32.00;;;20.02;;
59074;SDS011;44860;53.020;6.738;2022-10-23T07:46:13;35.03;;;20.70;;
59074;SDS011;44860;53.020;6.738;2022-10-23T07:48:38;32.08;;;21.25;;
59074;SDS011;44860;53.020;6.738;2022-10-23T07:51:09;30.23;;;20.02;;
59074;SDS011;44860;53.020;6.738;2022-10-23T07:53:37;33.83;;;19.00;;
59074;SDS011;44860;53.020;6.738;2022-10-23T07:56:04;31.20;;;18.88;;
59074;SDS011;44860;53.020;6.738;2022-10-23T07:58:36;29.63;;;18.98;;
59074;SDS011;44860;53.020;6.738;2022-10-23T08:01:11;27.65;;;18.55;;
59074;SDS011;44860;53.020;6.738;2022-10-23T08:03:48;30.42;;;18.77;;
59074;SDS011;44860;53.020;6.738;2022-10-23T08:06:13;25.63;;;17.02;;
59074;SDS011;44860;53.020;6.738;2022-10-23T08:08:39;28.33;;;18.20;;
59074;SDS011;44860;53.020;6.738;2022-10-23T08:11:05;27.70;;;17.60;;
59074;SDS011;44860;53.020;6.738;2022-10-23T08:13:31;25.70;;;18.05;;
59074;SDS011;44860;53.020;6.738;2022-10-23T08:15:57;25.70;;;17.38;;
59074;SDS011;44860;53.020;6.738;2022-10-23T08:18:23;27.25;;;17.92;;
59074;SDS011;44860;53.020;6.738;2022-10-23T08:20:49;25.20;;;17.10;;
59074;SDS011;44860;53.020;6.738;2022-10-23T08:23:16;29.38;;;17.17;;
59074;SDS011;44860;53.020;6.738;2022-10-23T08:25:43;27.10;;;16.20;;
59074;SDS011;44860;53.020;6.738;2022-10-23T08:28:10;24.35;;;16.70;;
59074;SDS011;44860;53.020;6.738;2022-10-23T08:30:36;29.85;;;16.23;;
59074;SDS011;44860;53.020;6.738;2022-10-23T08:33:02;30.45;;;16.33;;
59074;SDS011;44860;53.020;6.738;2022-10-23T08:35:29;28.85;;;16.23;;
59074;SDS011;44860;53.020;6.738;2022-10-23T08:37:59;27.20;;;16.00;;
59074;SDS011;44860;53.020;6.738;2022-10-23T08:40:24;23.92;;;15.65;;
59074;SDS011;44860;53.020;6.738;2022-10-23T08:46:03;26.80;;;16.65;;
59074;SDS011;44860;53.020;6.738;2022-10-23T08:48:38;24.95;;;15.48;;
59074;SDS011;44860;53.020;6.738;2022-10-23T08:56:56;22.85;;;15.38;;
59074;SDS011;44860;53.020;6.738;2022-10-23T08:59:23;22.10;;;15.18;;
59074;SDS011;44860;53.020;6.738;2022-10-23T09:04:41;29.05;;;14.57;;
59074;SDS011;44860;53.020;6.738;2022-10-23T09:12:25;18.38;;;13.40;;
59074;SDS011;44860;53.020;6.738;2022-10-23T09:17:45;24.08;;;13.00;;
59074;SDS011;44860;53.020;6.738;2022-10-23T09:20:20;20.05;;;12.13;;
59074;SDS011;44860;53.020;6.738;2022-10-23T09:23:00;17.58;;;12.65;;
59074;SDS011;44860;53.020;6.738;2022-10-23T09:25:39;20.70;;;12.48;;
59074;SDS011;44860;53.020;6.738;2022-10-23T09:28:12;18.63;;;12.23;;
59074;SDS011;44860;53.020;6.738;2022-10-23T09:30:44;17.33;;;11.65;;
59074;SDS011;44860;53.020;6.738;2022-10-23T09:33:21;19.33;;;12.10;;
59074;SDS011;44860;53.020;6.738;2022-10-23T09:35:56;19.38;;;11.93;;
59074;SDS011;44860;53.020;6.738;2022-10-23T09:40:49;15.82;;;11.07;;
59074;SDS011;44860;53.020;6.738;2022-10-23T09:43:16;18.27;;;10.63;;
59074;SDS011;44860;53.020;6.738;2022-10-23T09:45:54;16.08;;;10.82;;
59074;SDS011;44860;53.020;6.738;2022-10-23T09:48:26;14.68;;;10.25;;
59074;SDS011;44860;53.020;6.738;2022-10-23T09:50:55;17.23;;;10.10;;
59074;SDS011;44860;53.020;6.738;2022-10-23T09:53:39;13.82;;;10.13;;
59074;SDS011;44860;53.020;6.738;2022-10-23T09:58:57;20.33;;;10.05;;
59074;SDS011;44860;53.020;6.738;2022-10-23T10:01:34;15.05;;;9.80;;
59074;SDS011;44860;53.020;6.738;2022-10-23T10:04:10;15.15;;;9.77;;
59074;SDS011;44860;53.020;6.738;2022-10-23T10:06:36;19.02;;;9.07;;
59074;SDS011;44860;53.020;6.738;2022-10-23T10:09:04;13.90;;;8.52;;
59074;SDS011;44860;53.020;6.738;2022-10-23T10:17:09;11.57;;;8.52;;
59074;SDS011;44860;53.020;6.738;2022-10-23T10:20:17;13.60;;;9.02;;
59074;SDS011;44860;53.020;6.738;2022-10-23T10:25:43;11.68;;;7.50;;
59074;SDS011;44860;53.020;6.738;2022-10-23T10:34:06;13.07;;;7.53;;
59074;SDS011;44860;53.020;6.738;2022-10-23T10:36:56;13.52;;;7.82;;
59074;SDS011;44860;53.020;6.738;2022-10-23T10:39:42;13.02;;;6.93;;
59074;SDS011;44860;53.020;6.738;2022-10-23T10:50:56;11.82;;;7.68;;
59074;SDS011;44860;53.020;6.738;2022-10-23T10:56:28;14.88;;;7.28;;
59074;SDS011;44860;53.020;6.738;2022-10-23T10:58:59;14.98;;;7.20;;
59074;SDS011;44860;53.020;6.738;2022-10-23T11:01:39;14.57;;;7.63;;
59074;SDS011;44860;53.020;6.738;2022-10-23T11:04:27;12.95;;;7.05;;
59074;SDS011;44860;53.020;6.738;2022-10-23T11:07:12;13.50;;;7.22;;
59074;SDS011;44860;53.020;6.738;2022-10-23T11:09:41;12.60;;;6.78;;
59074;SDS011;44860;53.020;6.738;2022-10-23T11:12:17;15.27;;;6.90;;
59074;SDS011;44860;53.020;6.738;2022-10-23T11:14:45;11.95;;;6.80;;
59074;SDS011;44860;53.020;6.738;2022-10-23T11:17:19;11.70;;;7.07;;
59074;SDS011;44860;53.020;6.738;2022-10-23T11:38:28;10.50;;;6.38;;
59074;SDS011;44860;53.020;6.738;2022-10-23T11:41:02;10.60;;;6.45;;
59074;SDS011;44860;53.020;6.738;2022-10-23T11:43:32;12.63;;;6.60;;
59074;SDS011;44860;53.020;6.738;2022-10-23T11:46:13;12.48;;;6.38;;
59074;SDS011;44860;53.020;6.738;2022-10-23T11:48:45;12.43;;;6.75;;
59074;SDS011;44860;53.020;6.738;2022-10-23T11:56:34;18.52;;;6.93;;
59074;SDS011;44860;53.020;6.738;2022-10-23T11:59:21;10.90;;;5.93;;
59074;SDS011;44860;53.020;6.738;2022-10-23T12:01:56;9.25;;;5.80;;
59074;SDS011;44860;53.020;6.738;2022-10-23T12:04:38;15.13;;;5.90;;
59074;SDS011;44860;53.020;6.738;2022-10-23T12:07:20;12.77;;;5.85;;
59074;SDS011;44860;53.020;6.738;2022-10-23T12:09:55;9.88;;;6.10;;
59074;SDS011;44860;53.020;6.738;2022-10-23T12:15:06;12.32;;;5.70;;
59074;SDS011;44860;53.020;6.738;2022-10-23T12:17:36;10.60;;;6.03;;
59074;SDS011;44860;53.020;6.738;2022-10-23T12:20:17;12.07;;;5.43;;
59074;SDS011;44860;53.020;6.738;2022-10-23T12:31:02;13.57;;;5.28;;
59074;SDS011;44860;53.020;6.738;2022-10-23T12:36:23;10.05;;;5.60;;
59074;SDS011;44860;53.020;6.738;2022-10-23T12:39:00;8.48;;;5.28;;
59074;SDS011;44860;53.020;6.738;2022-10-23T12:41:30;10.35;;;5.18;;
59074;SDS011;44860;53.020;6.738;2022-10-23T12:43:58;12.98;;;5.60;;
59074;SDS011;44860;53.020;6.738;2022-10-23T12:49:01;11.35;;;5.20;;
59074;SDS011;44860;53.020;6.738;2022-10-23T12:51:32;11.35;;;5.28;;
59074;SDS011;44860;53.020;6.738;2022-10-23T12:53:59;12.27;;;5.30;;
59074;SDS011;44860;53.020;6.738;2022-10-23T12:56:26;10.18;;;5.05;;
59074;SDS011;44860;53.020;6.738;2022-10-23T12:58:53;13.30;;;5.22;;
59074;SDS011;44860;53.020;6.738;2022-10-23T13:01:31;8.65;;;4.88;;
59074;SDS011;44860;53.020;6.738;2022-10-23T13:04:00;11.10;;;5.13;;
59074;SDS011;44860;53.020;6.738;2022-10-23T13:06:45;12.23;;;4.72;;
59074;SDS011;44860;53.020;6.738;2022-10-23T13:09:45;13.57;;;4.78;;
59074;SDS011;44860;53.020;6.738;2022-10-23T13:12:06;10.73;;;4.63;;
59074;SDS011;44860;53.020;6.738;2022-10-23T13:14:37;8.63;;;4.63;;
59074;SDS011;44860;53.020;6.738;2022-10-23T13:17:18;9.13;;;4.43;;
59074;SDS011;44860;53.020;6.738;2022-10-23T13:19:44;8.93;;;4.90;;
59074;SDS011;44860;53.020;6.738;2022-10-23T13:22:15;11.07;;;4.60;;
59074;SDS011;44860;53.020;6.738;2022-10-23T13:24:44;10.98;;;4.60;;
59074;SDS011;44860;53.020;6.738;2022-10-23T13:27:29;10.43;;;4.50;;
59074;SDS011;44860;53.020;6.738;2022-10-23T13:29:58;7.80;;;4.20;;
59074;SDS011;44860;53.020;6.738;2022-10-23T13:32:25;7.78;;;4.22;;
59074;SDS011;44860;53.020;6.738;2022-10-23T13:34:54;9.00;;;4.25;;
59074;SDS011;44860;53.020;6.738;2022-10-23T13:37:25;7.85;;;4.40;;
59074;SDS011;44860;53.020;6.738;2022-10-23T13:40:00;11.00;;;4.30;;
59074;SDS011;44860;53.020;6.738;2022-10-23T13:42:28;9.02;;;4.10;;
59074;SDS011;44860;53.020;6.738;2022-10-23T13:44:54;8.00;;;3.97;;
59074;SDS011;44860;53.020;6.738;2022-10-23T13:47:20;10.90;;;3.70;;
59074;SDS011;44860;53.020;6.738;2022-10-23T13:49:45;17.02;;;10.65;;
59074;SDS011;44860;53.020;6.738;2022-10-23T13:52:12;30.50;;;23.25;;
59074;SDS011;44860;53.020;6.738;2022-10-23T13:54:39;11.50;;;6.55;;
59074;SDS011;44860;53.020;6.738;2022-10-23T13:57:05;13.60;;;6.75;;
59074;SDS011;44860;53.020;6.738;2022-10-23T13:59:36;13.43;;;4.90;;
59074;SDS011;44860;53.020;6.738;2022-10-23T14:02:02;9.43;;;4.70;;
59074;SDS011;44860;53.020;6.738;2022-10-23T14:04:30;11.25;;;4.35;;
59074;SDS011;44860;53.020;6.738;2022-10-23T14:06:56;9.98;;;4.45;;
59074;SDS011;44860;53.020;6.738;2022-10-23T14:09:22;8.93;;;4.10;;
59074;SDS011;44860;53.020;6.738;2022-10-23T14:11:48;7.53;;;3.70;;
59074;SDS011;44860;53.020;6.738;2022-10-23T14:14:14;7.85;;;3.95;;
59074;SDS011;44860;53.020;6.738;2022-10-23T14:16:39;13.10;;;4.85;;
59074;SDS011;44860;53.020;6.738;2022-10-23T14:19:05;11.23;;;4.10;;
59074;SDS011;44860;53.020;6.738;2022-10-23T14:21:31;6.90;;;4.03;;
59074;SDS011;44860;53.020;6.738;2022-10-23T14:23:57;30.05;;;24.50;;
59074;SDS011;44860;53.020;6.738;2022-10-23T14:26:24;14.63;;;13.13;;
59074;SDS011;44860;53.020;6.738;2022-10-23T14:28:53;30.90;;;28.00;;
59074;SDS011;44860;53.020;6.738;2022-10-23T14:31:19;18.17;;;16.60;;
59074;SDS011;44860;53.020;6.738;2022-10-23T14:33:49;14.68;;;13.18;;
59074;SDS011;44860;53.020;6.738;2022-10-23T14:36:19;25.27;;;22.83;;
59074;SDS011;44860;53.020;6.738;2022-10-23T14:38:46;19.65;;;17.67;;
59074;SDS011;44860;53.020;6.738;2022-10-23T14:41:13;11.30;;;9.13;;
59074;SDS011;44860;53.020;6.738;2022-10-23T14:43:41;12.93;;;9.40;;
59074;SDS011;44860;53.020;6.738;2022-10-23T14:46:11;8.27;;;4.82;;
59074;SDS011;44860;53.020;6.738;2022-10-23T14:48:39;11.68;;;4.82;;
59074;SDS011;44860;53.020;6.738;2022-10-23T14:51:06;7.95;;;4.60;;
59074;SDS011;44860;53.020;6.738;2022-10-23T14:53:40;9.93;;;4.90;;
59074;SDS011;44860;53.020;6.738;2022-10-23T14:56:06;9.45;;;4.75;;
59074;SDS011;44860;53.020;6.738;2022-10-23T14:58:32;8.40;;;5.15;;
59074;SDS011;44860;53.020;6.738;2022-10-23T15:00:58;9.75;;;4.53;;
59074;SDS011;44860;53.020;6.738;2022-10-23T15:03:25;8.27;;;4.65;;
59074;SDS011;44860;53.020;6.738;2022-10-23T15:05:51;10.38;;;4.97;;
59074;SDS011;44860;53.020;6.738;2022-10-23T15:08:17;9.77;;;4.55;;
59074;SDS011;44860;53.020;6.738;2022-10-23T15:10:43;9.65;;;4.97;;
59074;SDS011;44860;53.020;6.738;2022-10-23T15:13:08;9.00;;;4.72;;
59074;SDS011;44860;53.020;6.738;2022-10-23T15:15:34;9.75;;;4.40;;
59074;SDS011;44860;53.020;6.738;2022-10-23T15:17:59;8.88;;;4.32;;
59074;SDS011;44860;53.020;6.738;2022-10-23T15:20:25;9.63;;;4.35;;
59074;SDS011;44860;53.020;6.738;2022-10-23T15:22:51;8.98;;;4.45;;
59074;SDS011;44860;53.020;6.738;2022-10-23T15:25:16;8.23;;;4.28;;
59074;SDS011;44860;53.020;6.738;2022-10-23T15:27:42;9.38;;;4.47;;
59074;SDS011;44860;53.020;6.738;2022-10-23T15:30:08;9.60;;;4.50;;
59074;SDS011;44860;53.020;6.738;2022-10-23T15:32:35;7.93;;;4.55;;
59074;SDS011;44860;53.020;6.738;2022-10-23T15:35:00;7.32;;;4.50;;
59074;SDS011;44860;53.020;6.738;2022-10-23T15:37:26;9.32;;;4.00;;
59074;SDS011;44860;53.020;6.738;2022-10-23T15:39:52;10.05;;;4.38;;
59074;SDS011;44860;53.020;6.738;2022-10-23T15:42:17;9.30;;;4.70;;
59074;SDS011;44860;53.020;6.738;2022-10-23T15:44:43;12.70;;;5.25;;
59074;SDS011;44860;53.020;6.738;2022-10-23T15:47:09;8.50;;;4.38;;
59074;SDS011;44860;53.020;6.738;2022-10-23T15:49:34;8.30;;;4.60;;
59074;SDS011;44860;53.020;6.738;2022-10-23T15:52:01;11.70;;;4.47;;
59074;SDS011;44860;53.020;6.738;2022-10-23T15:54:28;11.40;;;4.07;;
59074;SDS011;44860;53.020;6.738;2022-10-23T15:56:54;7.57;;;4.70;;
59074;SDS011;44860;53.020;6.738;2022-10-23T15:59:22;7.65;;;4.43;;
59074;SDS011;44860;53.020;6.738;2022-10-23T16:01:49;11.77;;;4.53;;
59074;SDS011;44860;53.020;6.738;2022-10-23T16:04:16;12.32;;;4.82;;
59074;SDS011;44860;53.020;6.738;2022-10-23T16:06:42;8.63;;;4.32;;
59074;SDS011;44860;53.020;6.738;2022-10-23T16:09:09;8.77;;;4.20;;
59074;SDS011;44860;53.020;6.738;2022-10-23T16:11:36;9.50;;;4.32;;
59074;SDS011;44860;53.020;6.738;2022-10-23T16:14:03;10.65;;;4.75;;
59074;SDS011;44860;53.020;6.738;2022-10-23T16:16:30;10.80;;;4.57;;
59074;SDS011;44860;53.020;6.738;2022-10-23T16:18:57;8.80;;;4.90;;
59074;SDS011;44860;53.020;6.738;2022-10-23T16:21:25;11.43;;;5.15;;
59074;SDS011;44860;53.020;6.738;2022-10-23T16:23:53;12.13;;;5.07;;
59074;SDS011;44860;53.020;6.738;2022-10-23T16:26:21;10.95;;;5.00;;
59074;SDS011;44860;53.020;6.738;2022-10-23T16:28:50;8.75;;;5.03;;
59074;SDS011;44860;53.020;6.738;2022-10-23T16:31:24;10.93;;;5.00;;
59074;SDS011;44860;53.020;6.738;2022-10-23T16:33:49;13.77;;;5.05;;
59074;SDS011;44860;53.020;6.738;2022-10-23T16:36:16;11.25;;;4.97;;
59074;SDS011;44860;53.020;6.738;2022-10-23T16:38:43;9.85;;;6.32;;
59074;SDS011;44860;53.020;6.738;2022-10-23T16:41:08;13.25;;;8.20;;